Terminal Aerodrome Forecast
Issued by NWS

Home | Current Version | Previous Version | Text Only | Print | Product List | Glossary On
Versions: 1 2 3 4 5 6 7 8 9 10 11 12 13 14 15 16 17 18 19 20 21
000
FTUS45 KGJT 240138 AAA
TAFASE
TAF AMD
KASE 240138Z 2402/2424 36008G15KT 1 1/2SM -SN BR BKN010 BKN020
      OVC025
     FM240500 VRB03KT 4SM -SHSN OVC030
     FM240700 35004KT 2SM -SHSN BKN015 OVC030
     FM241000 34004KT P6SM VCSH BKN015 OVC030
     FM241800 33011G20KT P6SM SCT040 BKN050=

USA.gov is the U.S. government's official web portal to all federal, state and local government web resources and services.